Time;durP1;ratioP1;P1;durP2;ratioP2;P2;SDS_P1;SDS_P2;PMS_P1;PMS_P2;Temp;Humidity;BMP_temperature;BMP_pressure;BME280_temperature;BME280_humidity;BME280_pressure;Samples;Min_cycle;Max_cycle;Signal;HPM_P1;HPM_P2
2023/09/03 00:02:12;;;;;;;10.85;7.22;;;;;;;21.96;70.25;101943.88;5091528;27;97080;-66
2023/09/03 00:04:38;;;;;;;11.07;7.25;;;;;;;21.92;70.79;101945.88;5088355;27;101028;-67
2023/09/03 00:07:06;;;;;;;10.32;7.15;;;;;;;21.80;71.35;101936.72;5092612;27;98895;-68
2023/09/03 00:09:33;;;;;;;11.20;7.60;;;;;;;21.79;72.10;101932.31;5090237;27;97159;-67
2023/09/03 00:11:59;;;;;;;13.35;7.80;;;;;;;21.77;72.80;101936.06;5097525;27;97175;-67
2023/09/03 00:14:26;;;;;;;10.80;7.28;;;;;;;21.85;72.46;101942.72;5101386;27;98367;-67
2023/09/03 00:16:52;;;;;;;10.18;7.30;;;;;;;21.65;73.72;101937.72;5096999;27;99266;-67
2023/09/03 00:19:18;;;;;;;12.18;7.35;;;;;;;21.61;73.84;101938.84;5096385;27;99602;-68
2023/09/03 00:21:45;;;;;;;10.63;6.97;;;;;;;21.87;72.71;101935.38;5094267;27;98605;-67
2023/09/03 00:24:12;;;;;;;10.82;7.15;;;;;;;21.75;73.53;101941.53;5090334;27;99148;-67
2023/09/03 00:26:39;;;;;;;10.95;7.13;;;;;;;22.03;72.43;101942.50;5095521;27;100152;-67
2023/09/03 00:29:06;;;;;;;11.18;7.25;;;;;;;21.91;72.84;101946.81;5093677;27;96907;-66
2023/09/03 00:31:32;;;;;;;9.75;7.53;;;;;;;21.95;72.55;101942.97;5094798;27;96912;-68
2023/09/03 00:33:59;;;;;;;13.73;7.43;;;;;;;22.01;72.21;101949.81;5092844;27;99015;-68
2023/09/03 00:36:25;;;;;;;7.68;6.50;;;;;;;22.02;72.39;101948.84;5093691;27;98768;-66
2023/09/03 00:38:52;;;;;;;13.18;7.53;;;;;;;22.19;71.42;101954.84;5094640;27;96913;-66
2023/09/03 00:41:20;;;;;;;11.18;7.20;;;;;;;22.22;71.35;101945.72;5094073;27;97113;-67
2023/09/03 00:43:46;;;;;;;12.07;7.13;;;;;;;22.14;71.48;101946.22;5092545;27;97602;-67
2023/09/03 00:46:13;;;;;;;10.38;6.63;;;;;;;22.07;71.23;101944.03;5092789;27;98812;-67
2023/09/03 00:48:40;;;;;;;12.27;6.97;;;;;;;22.05;71.84;101940.59;5096281;27;96874;-69
2023/09/03 00:51:09;;;;;;;8.80;7.05;;;;;;;21.90;72.30;101944.22;5099616;27;96859;-70
2023/09/03 00:53:38;;;;;;;10.70;7.10;;;;;;;22.04;71.84;101942.41;5093643;27;99151;-69
2023/09/03 00:56:05;;;;;;;11.80;7.22;;;;;;;22.12;71.63;101950.00;5093251;27;99165;-68
2023/09/03 00:58:34;;;;;;;11.30;6.80;;;;;;;22.03;71.15;101942.50;5094853;27;96811;-70
2023/09/03 01:01:01;;;;;;;12.82;7.38;;;;;;;22.00;71.83;101951.63;5095417;27;98067;-69
2023/09/03 01:03:27;;;;;;;11.27;6.43;;;;;;;21.96;72.54;101941.16;5094883;27;99053;-69
2023/09/03 01:05:54;;;;;;;8.80;6.72;;;;;;;21.71;74.14;101950.78;5092579;27;100815;-67
2023/09/03 01:08:20;;;;;;;10.45;6.72;;;;;;;21.68;74.07;101945.56;5094520;27;97860;-68
2023/09/03 01:10:59;;;;;;;8.48;6.97;;;;;;;21.83;73.79;101938.38;5094406;27;97259;-68
2023/09/03 01:13:31;;;;;;;11.25;7.65;;;;;;;21.68;73.04;101942.88;5093097;27;99202;-69
2023/09/03 01:16:05;;;;;;;12.43;6.85;;;;;;;21.83;73.09;101947.31;5090380;27;98957;-69
2023/09/03 01:18:32;;;;;;;9.93;6.65;;;;;;;21.80;72.74;101942.09;5095991;27;97185;-69
2023/09/03 01:21:17;;;;;;;9.60;6.45;;;;;;;22.06;71.50;101942.28;5097063;27;98788;-69
2023/09/03 01:23:51;;;;;;;8.43;6.65;;;;;;;22.17;70.97;101951.44;5092821;27;97864;-69
2023/09/03 01:26:34;;;;;;;10.50;7.05;;;;;;;22.13;69.98;101943.63;5092268;27;98699;-69
2023/09/03 01:29:02;;;;;;;11.77;7.05;;;;;;;22.03;68.75;101955.97;5094031;27;98910;-69
2023/09/03 01:31:29;;;;;;;12.98;7.82;;;;;;;22.12;67.46;101955.38;5093371;27;97777;-69
2023/09/03 01:34:01;;;;;;;10.13;7.05;;;;;;;22.18;67.51;101953.16;5095368;27;99093;-69
2023/09/03 01:36:29;;;;;;;11.65;7.30;;;;;;;22.10;67.82;101952.78;5092431;27;98937;-69
2023/09/03 01:38:58;;;;;;;10.50;6.65;;;;;;;22.08;68.55;101943.06;5093128;27;96894;-68
2023/09/03 01:41:24;;;;;;;9.40;6.50;;;;;;;22.00;68.44;101948.94;5096355;27;97266;-69
2023/09/03 01:43:51;;;;;;;10.60;6.80;;;;;;;22.02;68.90;101944.34;5092582;27;97685;-69
2023/09/03 01:46:23;;;;;;;7.57;6.45;;;;;;;22.04;69.59;101939.72;5092809;27;97394;-69
2023/09/03 01:49:01;;;;;;;10.55;6.75;;;;;;;21.98;69.55;101941.94;5092531;27;97555;-69
2023/09/03 01:51:35;;;;;;;10.15;5.90;;;;;;;21.94;70.02;101941.22;5099154;27;96833;-69
2023/09/03 01:54:07;;;;;;;12.65;7.03;;;;;;;21.86;71.21;101939.03;5093302;27;99076;-69
2023/09/03 01:56:39;;;;;;;8.65;6.93;;;;;;;21.59;72.28;101946.19;5090783;27;98722;-69
2023/09/03 01:59:16;;;;;;;8.93;6.60;;;;;;;21.84;70.01;101940.97;5090345;27;96795;-70
2023/09/03 02:01:45;;;;;;;10.40;6.85;;;;;;;21.69;71.21;101931.19;5090948;27;97126;-67
2023/09/03 02:04:11;;;;;;;9.27;5.80;;;;;;;21.84;70.66;101932.03;5093245;27;101595;-70
2023/09/03 02:06:38;;;;;;;10.00;6.53;;;;;;;21.81;71.03;101934.91;5091019;27;97811;-69
2023/09/03 02:09:05;;;;;;;9.65;6.30;;;;;;;21.55;72.53;101938.38;5094097;27;98556;-69
2023/09/03 02:11:31;;;;;;;13.30;6.43;;;;;;;21.66;72.08;101939.41;5094248;27;98585;-70
2023/09/03 02:13:57;;;;;;;8.73;6.65;;;;;;;21.33;73.47;101946.94;5094504;27;99820;-69
2023/09/03 02:16:24;;;;;;;9.60;6.90;;;;;;;21.45;72.53;101949.72;5091285;27;99869;-70
2023/09/03 02:18:52;;;;;;;13.32;7.30;;;;;;;21.41;71.78;101953.53;5093683;27;96797;-70
2023/09/03 02:21:18;;;;;;;10.05;6.55;;;;;;;21.47;72.05;101952.28;5092989;27;97065;-69
2023/09/03 02:23:44;;;;;;;10.13;7.10;;;;;;;21.25;72.62;101952.78;5098040;27;98978;-69
2023/09/03 02:26:11;;;;;;;12.98;6.97;;;;;;;21.13;73.19;101949.94;5092963;27;101389;-69
2023/09/03 02:28:37;;;;;;;10.35;6.45;;;;;;;21.27;72.31;101939.22;5092048;27;96837;-69
2023/09/03 02:31:04;;;;;;;9.77;6.55;;;;;;;21.25;72.84;101935.78;5095275;27;97230;-69
2023/09/03 02:33:30;;;;;;;11.20;6.80;;;;;;;21.34;72.24;101945.94;5091007;27;101486;-69
2023/09/03 02:35:58;;;;;;;10.70;6.70;;;;;;;21.40;71.66;101945.56;5092944;27;99589;-69
2023/09/03 02:38:24;;;;;;;10.45;7.38;;;;;;;21.18;72.59;101939.78;5099667;27;100425;-69
2023/09/03 02:40:51;;;;;;;10.00;6.97;;;;;;;20.86;74.58;101956.00;5094235;27;97031;-69
2023/09/03 02:43:17;;;;;;;10.43;7.07;;;;;;;21.32;73.00;101953.25;5096479;27;99493;-70
2023/09/03 02:45:44;;;;;;;9.88;7.28;;;;;;;21.11;72.88;101960.78;5093942;27;98776;-70
2023/09/03 02:48:10;;;;;;;11.05;7.00;;;;;;;21.19;72.18;101954.97;5091884;27;96812;-69
2023/09/03 02:50:36;;;;;;;10.70;7.07;;;;;;;21.28;72.13;101941.81;5097354;27;96871;-69
2023/09/03 02:53:06;;;;;;;9.45;6.85;;;;;;;20.96;73.52;101941.06;5095353;27;99064;-69
2023/09/03 02:55:32;;;;;;;14.43;7.35;;;;;;;21.19;72.75;101934.34;5089988;27;99208;-69
2023/09/03 02:57:59;;;;;;;8.95;7.28;;;;;;;21.08;73.12;101932.25;5088143;27;99899;-68
2023/09/03 03:00:26;;;;;;;11.43;7.28;;;;;;;21.19;72.89;101937.03;5092036;27;96925;-68
2023/09/03 03:02:53;;;;;;;10.65;7.82;;;;;;;21.07;73.52;101943.94;5093658;27;99376;-69
2023/09/03 03:05:19;;;;;;;10.20;6.78;;;;;;;21.01;73.92;101938.94;5094746;27;97516;-69
2023/09/03 03:07:45;;;;;;;11.00;7.10;;;;;;;21.10;73.09;101942.91;5093654;27;97334;-70
2023/09/03 03:10:13;;;;;;;11.65;7.63;;;;;;;20.93;73.26;101935.00;5093602;27;98335;-69
2023/09/03 03:12:44;;;;;;;9.98;7.90;;;;;;;21.03;72.78;101930.81;5090014;27;101160;-67
2023/09/03 03:15:11;;;;;;;11.13;7.95;;;;;;;20.91;73.33;101924.34;5093614;27;99209;-69
2023/09/03 03:17:37;;;;;;;8.85;7.32;;;;;;;20.82;73.52;101932.09;5092525;27;96748;-69
2023/09/03 03:20:04;;;;;;;8.43;7.30;;;;;;;21.05;71.72;101940.50;5094781;27;97034;-69
2023/09/03 03:22:30;;;;;;;11.48;7.63;;;;;;;20.87;72.64;101938.91;5092465;27;98885;-69
2023/09/03 03:24:57;;;;;;;11.43;7.25;;;;;;;21.01;71.94;101946.13;5100914;27;99002;-69
2023/09/03 03:27:24;;;;;;;12.43;7.07;;;;;;;21.19;71.41;101944.22;5093377;27;97132;-68
2023/09/03 03:29:52;;;;;;;8.13;6.68;;;;;;;21.28;70.76;101947.19;5089613;27;96894;-70
2023/09/03 03:32:19;;;;;;;9.43;6.75;;;;;;;21.17;70.29;101955.06;5088912;27;100102;-70
2023/09/03 03:34:46;;;;;;;11.35;6.95;;;;;;;21.30;69.40;101966.78;5087952;27;98917;-68
2023/09/03 03:37:12;;;;;;;8.10;6.45;;;;;;;21.50;68.46;101970.94;5091647;27;97244;-68
2023/09/03 03:39:38;;;;;;;9.48;6.70;;;;;;;21.55;67.94;101976.91;5092241;27;96855;-68
2023/09/03 03:42:05;;;;;;;8.10;6.20;;;;;;;21.32;68.27;101969.41;5092128;27;99219;-68
2023/09/03 03:44:34;;;;;;;8.73;6.57;;;;;;;21.39;67.39;101960.88;5092139;27;99409;-69
2023/09/03 03:47:00;;;;;;;9.80;6.38;;;;;;;21.26;67.01;101959.88;5095435;27;98976;-68
2023/09/03 03:49:26;;;;;;;8.13;6.47;;;;;;;21.31;66.92;101962.28;5099961;27;98817;-69
2023/09/03 03:51:53;;;;;;;9.18;6.55;;;;;;;21.42;66.61;101975.91;5094490;27;99670;-69
2023/09/03 03:54:19;;;;;;;8.07;5.90;;;;;;;21.34;67.06;101973.69;5100123;27;97669;-69
2023/09/03 03:56:45;;;;;;;10.55;6.80;;;;;;;21.30;66.95;101976.69;5098040;27;97097;-69
2023/09/03 03:59:12;;;;;;;8.68;6.00;;;;;;;21.38;66.43;101974.41;5101161;27;96896;-69
2023/09/03 04:01:39;;;;;;;11.30;6.53;;;;;;;20.99;67.78;101983.00;5099399;27;98970;-70
2023/09/03 04:04:06;;;;;;;9.65;6.43;;;;;;;21.15;67.09;101973.06;5098396;27;99007;-68
2023/09/03 04:06:33;;;;;;;11.70;7.68;;;;;;;21.27;66.34;101968.78;5094680;27;96962;-68
2023/09/03 04:08:59;;;;;;;8.80;6.75;;;;;;;21.25;66.25;101976.97;5096400;27;96965;-68
2023/09/03 04:11:25;;;;;;;9.77;6.82;;;;;;;21.13;66.75;101966.94;5097399;27;101646;-68
2023/09/03 04:13:52;;;;;;;9.75;6.50;;;;;;;21.13;66.45;101976.81;5095682;27;98852;-69
2023/09/03 04:16:20;;;;;;;10.18;6.55;;;;;;;21.45;65.60;101983.81;5094291;27;96776;-68
2023/09/03 04:18:48;;;;;;;10.35;7.28;;;;;;;21.30;65.67;101988.28;5095407;27;96881;-68
2023/09/03 04:21:15;;;;;;;10.02;6.50;;;;;;;21.35;65.72;101996.94;5094077;27;98826;-68
2023/09/03 04:23:42;;;;;;;9.50;6.93;;;;;;;21.25;65.83;102000.28;5091440;27;98873;-69
2023/09/03 04:26:09;;;;;;;8.13;5.90;;;;;;;21.11;66.44;102005.59;5093074;27;97601;-68
2023/09/03 04:28:36;;;;;;;6.43;5.72;;;;;;;21.11;66.68;102003.78;5091881;27;96998;-68
2023/09/03 04:31:04;;;;;;;10.45;5.72;;;;;;;21.06;66.62;102001.38;5090896;27;98940;-68
2023/09/03 04:33:30;;;;;;;7.07;5.57;;;;;;;21.05;66.59;102005.00;5090884;27;98770;-68
2023/09/03 04:35:59;;;;;;;10.73;6.10;;;;;;;21.14;65.92;102008.06;5087622;27;97650;-67
2023/09/03 04:38:27;;;;;;;10.27;6.50;;;;;;;21.22;65.43;102006.72;5091342;27;98469;-67
2023/09/03 04:40:53;;;;;;;7.47;5.72;;;;;;;21.23;65.43;102008.44;5092146;27;98998;-69
2023/09/03 04:43:20;;;;;;;12.13;6.60;;;;;;;21.20;65.04;102010.47;5092529;27;98874;-69
2023/09/03 04:45:47;;;;;;;10.35;5.72;;;;;;;21.03;65.74;102001.53;5091451;27;98916;-69
2023/09/03 04:48:13;;;;;;;9.65;5.47;;;;;;;20.92;66.76;102008.50;5091865;27;96955;-68
2023/09/03 04:50:39;;;;;;;;;;;;;;;21.13;65.68;102006.38;5090960;27;98933;-69
2023/09/03 04:53:07;;;;;;;9.23;6.82;;;;;;;21.28;64.93;102013.53;5091026;27;99140;-68
2023/09/03 04:55:34;;;;;;;13.98;6.38;;;;;;;21.24;64.93;102020.94;5098421;27;97876;-69
2023/09/03 04:58:01;;;;;;;11.82;6.38;;;;;;;21.19;65.67;102027.53;5089320;27;98872;-68
2023/09/03 05:00:28;;;;;;;7.93;5.75;;;;;;;21.33;64.98;102041.03;5091642;27;99513;-68
2023/09/03 05:02:54;;;;;;;7.68;5.63;;;;;;;21.29;64.75;102059.16;5088658;27;99601;-68
2023/09/03 05:05:21;;;;;;;6.60;5.75;;;;;;;21.19;65.05;102066.03;5091541;27;97401;-68
2023/09/03 05:07:48;;;;;;;6.80;4.80;;;;;;;21.05;65.58;102064.13;5091827;27;96937;-68
2023/09/03 05:10:16;;;;;;;10.52;6.95;;;;;;;20.96;65.73;102064.66;5092240;27;99419;-68
2023/09/03 05:12:43;;;;;;;6.43;5.43;;;;;;;20.95;65.91;102060.22;5090718;27;98793;-68
2023/09/03 05:15:10;;;;;;;8.77;5.85;;;;;;;20.97;65.51;102066.38;5091628;27;97652;-68
2023/09/03 05:17:36;;;;;;;8.07;5.60;;;;;;;20.98;65.66;102078.88;5092399;27;96968;-68
2023/09/03 05:20:04;;;;;;;10.70;5.15;;;;;;;20.99;65.68;102077.94;5091343;27;98899;-67
2023/09/03 05:22:30;;;;;;;11.27;5.35;;;;;;;21.04;65.59;102073.13;5090779;27;99076;-67
2023/09/03 05:24:56;;;;;;;11.30;5.47;;;;;;;21.24;65.06;102063.06;5091717;27;98983;-68
2023/09/03 05:27:24;;;;;;;6.85;5.07;;;;;;;21.28;64.94;102053.84;5093134;27;96789;-68
2023/09/03 05:29:50;;;;;;;7.55;5.47;;;;;;;21.54;64.14;102063.03;5092632;27;99388;-69
2023/09/03 05:32:17;;;;;;;5.82;4.75;;;;;;;21.55;64.17;102059.41;5088791;27;98854;-69
2023/09/03 05:34:43;;;;;;;8.48;5.32;;;;;;;21.56;63.70;102064.69;5088652;27;98005;-69
2023/09/03 05:37:10;;;;;;;6.50;5.55;;;;;;;21.70;62.92;102072.78;5088209;27;97032;-67
2023/09/03 05:39:36;;;;;;;8.27;4.80;;;;;;;21.61;62.97;102073.34;5090313;27;99084;-68
2023/09/03 05:42:03;;;;;;;8.23;4.80;;;;;;;21.65;63.16;102068.66;5091350;27;98816;-69
2023/09/03 05:44:31;;;;;;;7.57;4.43;;;;;;;21.67;62.74;102059.50;5092133;27;96787;-68
2023/09/03 05:46:57;;;;;;;9.05;4.57;;;;;;;21.55;63.26;102064.78;5090543;27;96749;-68
2023/09/03 05:49:23;;;;;;;8.15;4.97;;;;;;;21.53;63.23;102066.72;5093007;27;101757;-68
2023/09/03 05:51:50;;;;;;;8.70;4.57;;;;;;;21.52;63.75;102064.97;5090229;27;97493;-68
2023/09/03 05:54:16;;;;;;;6.50;4.43;;;;;;;21.75;62.82;102088.63;5094831;27;96762;-68
2023/09/03 05:56:43;;;;;;;7.00;4.43;;;;;;;21.73;62.90;102110.25;5093353;27;98463;-69
2023/09/03 05:59:10;;;;;;;7.88;4.60;;;;;;;21.93;62.28;102133.25;5093902;27;98882;-68
2023/09/03 06:01:38;;;;;;;7.55;4.72;;;;;;;21.68;62.54;102149.16;5091831;27;98915;-69
2023/09/03 06:04:07;;;;;;;6.95;4.50;;;;;;;21.42;64.06;102150.69;5093949;27;97160;-66
2023/09/03 06:06:38;;;;;;;9.13;4.45;;;;;;;21.20;64.70;102143.00;5093321;27;97428;-69
2023/09/03 06:09:05;;;;;;;5.78;4.38;;;;;;;21.21;64.92;102143.88;5095475;27;101706;-68
2023/09/03 06:11:31;;;;;;;8.00;4.35;;;;;;;21.16;65.73;102156.72;5091050;27;99751;-68
2023/09/03 06:13:58;;;;;;;12.80;4.90;;;;;;;21.64;63.93;102161.94;5091210;27;96981;-68
2023/09/03 06:16:25;;;;;;;6.68;4.25;;;;;;;21.64;63.68;102164.63;5092920;27;96923;-67
2023/09/03 06:18:53;;;;;;;10.10;4.53;;;;;;;22.02;62.32;102158.78;5092729;27;100858;-67
2023/09/03 06:21:19;;;;;;;10.48;4.78;;;;;;;22.01;61.97;102162.44;5091557;27;98999;-68
2023/09/03 06:23:46;;;;;;;9.48;4.80;;;;;;;21.99;62.05;102162.50;5090408;27;97308;-68
2023/09/03 06:26:13;;;;;;;12.23;5.63;;;;;;;21.90;62.09;102164.88;5092316;27;96865;-69
2023/09/03 06:28:40;;;;;;;12.57;4.78;;;;;;;21.96;62.15;102156.47;5089109;27;98978;-68
2023/09/03 06:31:06;;;;;;;10.13;4.43;;;;;;;22.02;62.16;102153.41;5091752;27;100038;-68
2023/09/03 06:33:33;;;;;;;10.43;4.88;;;;;;;21.66;63.49;102149.25;5092074;27;96785;-69
2023/09/03 06:36:00;;;;;;;9.52;4.85;;;;;;;21.32;64.99;102165.66;5090185;27;97303;-68
2023/09/03 06:38:27;;;;;;;11.77;5.07;;;;;;;21.17;65.08;102164.72;5091330;27;97801;-69
2023/09/03 06:40:53;;;;;;;14.00;4.93;;;;;;;21.26;65.50;102157.94;5090331;27;98774;-68
2023/09/03 06:43:20;;;;;;;9.10;4.13;;;;;;;21.36;64.48;102153.75;5089178;27;99019;-68
2023/09/03 06:45:46;;;;;;;9.15;4.38;;;;;;;21.73;63.19;102142.53;5091371;27;96980;-68
2023/09/03 06:48:13;;;;;;;9.60;4.30;;;;;;;22.03;62.03;102152.44;5088422;27;98982;-68
2023/09/03 06:50:41;;;;;;;7.85;4.20;;;;;;;22.05;61.64;102154.09;5088538;27;100560;-69
2023/09/03 06:53:08;;;;;;;7.97;4.03;;;;;;;22.01;61.53;102159.72;5090698;27;97009;-67
2023/09/03 06:55:35;;;;;;;8.35;3.67;;;;;;;22.19;60.37;102170.22;5087202;27;98215;-66
2023/09/03 06:58:01;;;;;;;8.93;3.88;;;;;;;22.58;58.85;102169.56;5093232;27;98925;-70
2023/09/03 07:00:27;;;;;;;8.45;3.50;;;;;;;22.26;59.06;102179.66;5090650;27;98438;-69
2023/09/03 07:02:54;;;;;;;7.30;3.70;;;;;;;22.52;58.31;102191.50;5094595;27;96756;-68
2023/09/03 07:05:20;;;;;;;9.25;3.00;;;;;;;22.60;57.89;102199.09;5092536;27;96808;-67
2023/09/03 07:07:47;;;;;;;7.30;3.47;;;;;;;22.64;57.46;102204.19;5088352;27;99339;-69
2023/09/03 07:10:14;;;;;;;11.10;3.33;;;;;;;22.64;57.37;102201.50;5091614;27;99183;-68
2023/09/03 07:12:41;;;;;;;7.03;3.08;;;;;;;22.67;56.54;102212.09;5094103;27;96937;-67
2023/09/03 07:15:08;;;;;;;5.13;2.35;;;;;;;22.57;56.59;102210.09;5090681;27;96832;-67
2023/09/03 07:17:35;;;;;;;6.68;3.00;;;;;;;22.79;55.54;102220.41;5089723;27;101402;-66
2023/09/03 07:20:02;;;;;;;8.32;3.72;;;;;;;22.62;55.08;102207.97;5093604;27;98793;-67
2023/09/03 07:22:29;;;;;;;9.90;4.72;;;;;;;22.84;54.68;102219.13;5098150;27;96771;-67
2023/09/03 07:24:55;;;;;;;4.22;1.90;;;;;;;22.77;54.61;102223.22;5092381;27;97481;-68
2023/09/03 07:27:23;;;;;;;10.25;4.90;;;;;;;22.40;56.01;102227.28;5087220;27;97735;-68
2023/09/03 07:29:52;;;;;;;6.25;2.40;;;;;;;22.41;55.95;102231.72;5087866;27;99483;-68
2023/09/03 07:32:20;;;;;;;6.18;2.00;;;;;;;22.80;55.18;102228.38;5083845;27;103793;-68
2023/09/03 07:34:47;;;;;;;4.18;2.05;;;;;;;22.67;55.08;102225.56;5087437;27;97115;-67
2023/09/03 07:37:13;;;;;;;4.82;2.03;;;;;;;22.58;55.49;102223.44;5090485;27;99037;-67
2023/09/03 07:39:39;;;;;;;8.63;2.38;;;;;;;22.69;54.79;102221.91;5085017;27;98845;-67
2023/09/03 07:42:06;;;;;;;6.30;2.38;;;;;;;22.88;53.52;102217.13;5090592;27;97155;-67
2023/09/03 07:44:34;;;;;;;4.88;2.00;;;;;;;23.57;52.05;102218.88;5091387;27;96930;-67
2023/09/03 07:47:01;;;;;;;7.20;2.00;;;;;;;23.71;50.60;102216.13;5088671;27;101731;-67
2023/09/03 07:49:28;;;;;;;5.68;1.90;;;;;;;23.83;50.60;102210.75;5086865;27;99106;-69
2023/09/03 07:51:55;;;;;;;12.20;2.03;;;;;;;23.94;50.14;102226.25;5088493;27;98703;-69
2023/09/03 07:54:21;;;;;;;4.93;1.80;;;;;;;23.82;49.20;102219.00;5082700;27;99240;-68
2023/09/03 07:56:48;;;;;;;5.50;1.75;;;;;;;23.97;49.52;102227.84;5087382;27;101419;-68
2023/09/03 07:59:14;;;;;;;5.18;2.03;;;;;;;23.97;48.17;102223.31;5086283;27;99616;-68
2023/09/03 08:01:42;;;;;;;5.28;1.88;;;;;;;24.03;48.60;102233.69;5087308;27;96844;-68
2023/09/03 08:04:08;;;;;;;7.28;2.60;;;;;;;23.80;48.27;102246.09;5089921;27;96980;-68
2023/09/03 08:06:35;;;;;;;5.63;1.75;;;;;;;23.87;48.15;102248.38;5082526;27;99012;-68
2023/09/03 08:09:03;;;;;;;5.45;1.60;;;;;;;23.77;48.96;102258.91;5087202;27;99006;-69
2023/09/03 08:11:29;;;;;;;4.18;1.80;;;;;;;23.74;48.50;102264.53;5087784;27;98855;-68
2023/09/03 08:13:59;;;;;;;6.82;1.77;;;;;;;23.81;48.55;102263.16;5084095;27;96877;-67
2023/09/03 08:16:25;;;;;;;5.63;2.00;;;;;;;23.71;49.07;102260.19;5083288;27;99111;-68
2023/09/03 08:18:53;;;;;;;4.05;1.40;;;;;;;24.19;48.80;102269.53;5072564;27;98142;-67
2023/09/03 08:21:19;;;;;;;3.72;1.75;;;;;;;24.56;48.05;102266.97;5080494;27;96929;-67
2023/09/03 08:23:46;;;;;;;5.60;1.90;;;;;;;24.67;47.27;102250.00;5079471;27;97681;-67
2023/09/03 08:26:13;;;;;;;3.17;1.85;;;;;;;24.78;47.17;102252.78;5076981;27;98938;-67
2023/09/03 08:28:39;;;;;;;8.13;1.90;;;;;;;24.62;45.64;102253.00;5071964;27;98804;-67
2023/09/03 08:31:05;;;;;;;3.47;1.17;;;;;;;24.87;45.83;102254.84;5077587;27;96879;-68
2023/09/03 08:33:33;;;;;;;2.83;1.58;;;;;;;24.79;45.79;102260.81;5077893;27;98247;-69
2023/09/03 08:36:07;;;;;;;4.50;1.90;;;;;;;25.10;44.04;102258.63;5083914;27;99078;-70
2023/09/03 08:38:34;;;;;;;8.27;2.58;;;;;;;24.91;44.73;102251.84;5079902;27;98799;-68
2023/09/03 08:41:00;;;;;;;3.70;1.40;;;;;;;24.62;45.45;102250.31;5081822;27;98412;-70
2023/09/03 08:43:29;;;;;;;3.35;1.70;;;;;;;24.39;45.88;102254.66;5077150;27;99079;-69
2023/09/03 08:45:59;;;;;;;6.15;1.40;;;;;;;24.37;45.73;102253.00;5082981;27;101389;-71
2023/09/03 08:48:25;;;;;;;4.10;1.20;;;;;;;24.04;46.78;102251.63;5089944;27;98041;-68
2023/09/03 08:50:52;;;;;;;4.03;1.17;;;;;;;23.97;47.38;102247.63;5093896;27;97776;-68
2023/09/03 08:53:23;;;;;;;4.43;1.75;;;;;;;23.88;47.92;102242.88;5089075;27;97766;-68
2023/09/03 08:55:49;;;;;;;4.32;1.30;;;;;;;23.99;47.56;102243.00;5091881;27;98971;-68
2023/09/03 08:58:16;;;;;;;4.10;1.38;;;;;;;23.88;48.05;102245.56;5091925;27;98868;-69
2023/09/03 09:00:42;;;;;;;6.43;1.50;;;;;;;24.37;47.29;102236.81;5090531;27;97621;-68
2023/09/03 09:03:11;;;;;;;5.20;2.47;;;;;;;25.06;45.07;102235.47;5094788;27;96937;-68
2023/09/03 09:05:41;;;;;;;3.15;2.63;;;;;;;25.55;44.87;102236.28;5091859;27;97681;-70
2023/09/03 09:08:07;;;;;;;4.82;1.55;;;;;;;25.78;43.33;102242.69;5092490;27;99415;-71
2023/09/03 09:10:43;;;;;;;1.65;1.08;;;;;;;25.03;44.06;102247.38;5088236;27;96880;-71
2023/09/03 09:13:12;;;;;;;4.60;1.35;;;;;;;25.09;44.80;102249.63;5088021;27;98171;-72
2023/09/03 09:15:42;;;;;;;4.00;1.10;;;;;;;25.36;42.83;102250.31;5091620;27;99238;-70
2023/09/03 09:18:09;;;;;;;3.00;1.50;;;;;;;25.51;43.11;102240.19;5090880;27;100229;-71
2023/09/03 09:20:38;;;;;;;3.15;1.40;;;;;;;25.39;42.77;102238.41;5094449;27;97101;-71
2023/09/03 09:23:05;;;;;;;4.72;1.40;;;;;;;25.65;42.92;102239.19;5087720;27;97722;-71
2023/09/03 09:25:31;;;;;;;4.53;1.88;;;;;;;25.20;43.22;102247.03;5091541;27;101721;-71
2023/09/03 09:28:10;;;;;;;2.58;1.15;;;;;;;25.04;43.59;102241.00;5085602;27;100364;-72
2023/09/03 09:30:37;;;;;;;4.85;1.30;;;;;;;25.60;42.79;102244.94;5090348;27;96833;-72
2023/09/03 09:33:05;;;;;;;5.88;1.25;;;;;;;25.59;41.91;102250.50;5090674;27;97161;-72
2023/09/03 09:35:32;;;;;;;5.75;1.33;;;;;;;25.56;42.18;102258.78;5087244;27;99278;-68
2023/09/03 09:38:04;;;;;;;4.15;1.25;;;;;;;25.44;42.11;102262.41;5094053;27;98766;-68
2023/09/03 09:40:49;;;;;;;3.92;1.95;;;;;;;25.27;40.88;102261.81;5091215;27;96841;-68
2023/09/03 09:43:17;;;;;;;4.60;2.40;;;;;;;24.30;42.33;102262.50;5092205;27;96985;-68
2023/09/03 09:45:48;;;;;;;4.97;1.65;;;;;;;24.47;41.85;102254.13;5091148;27;97723;-69
2023/09/03 09:48:15;;;;;;;3.10;2.13;;;;;;;24.59;42.20;102254.13;5081698;27;97639;-68
2023/09/03 09:50:43;;;;;;;6.18;1.73;;;;;;;25.14;41.09;102260.13;5084781;27;97998;-68
2023/09/03 09:53:22;;;;;;;2.92;0.98;;;;;;;24.97;40.49;102259.50;5086895;27;96759;-70
2023/09/03 09:55:56;;;;;;;3.55;1.58;;;;;;;24.97;40.16;102259.50;5089434;27;99752;-70
2023/09/03 09:58:34;;;;;;;6.47;1.10;;;;;;;25.18;40.28;102261.63;5091636;27;99157;-70
2023/09/03 10:01:01;;;;;;;2.65;1.20;;;;;;;25.63;39.55;102260.97;5088186;27;98755;-70
2023/09/03 10:03:41;;;;;;;1.27;0.80;;;;;;;25.45;39.19;102261.44;5088411;27;98061;-69
2023/09/03 10:06:08;;;;;;;2.40;0.80;;;;;;;25.59;39.16;102251.34;5088572;27;97793;-70
2023/09/03 10:08:35;;;;;;;5.40;1.10;;;;;;;25.52;39.21;102249.19;5088407;27;100978;-70
2023/09/03 10:11:02;;;;;;;4.78;0.90;;;;;;;25.22;39.03;102249.59;5088095;27;97260;-69
2023/09/03 10:13:32;;;;;;;3.15;1.30;;;;;;;25.34;39.57;102251.38;5085449;27;96890;-69
2023/09/03 10:16:02;;;;;;;3.40;1.38;;;;;;;25.96;38.57;102249.41;5089285;27;101038;-69
2023/09/03 10:18:31;;;;;;;5.10;2.40;;;;;;;25.87;38.27;102252.81;5088044;27;99191;-68
2023/09/03 10:21:00;;;;;;;1.48;0.80;;;;;;;25.76;38.18;102236.53;5086491;27;97302;-69
2023/09/03 10:23:30;;;;;;;1.38;0.98;;;;;;;25.50;37.69;102238.47;5090624;27;96841;-68
2023/09/03 10:25:58;;;;;;;6.20;1.02;;;;;;;25.13;38.50;102250.28;5089089;27;97673;-68
2023/09/03 10:28:27;;;;;;;2.45;1.02;;;;;;;25.11;38.45;102255.81;5090635;27;99218;-71
2023/09/03 10:30:56;;;;;;;2.28;1.25;;;;;;;25.41;38.98;102253.53;5085209;27;96828;-69
2023/09/03 10:33:22;;;;;;;5.63;1.25;;;;;;;24.95;38.40;102258.75;5088044;27;96895;-69
2023/09/03 10:36:13;;;;;;;6.40;1.10;;;;;;;24.89;38.98;102266.41;5089501;27;99034;-69
2023/09/03 10:38:40;;;;;;;4.05;1.00;;;;;;;24.76;40.01;102262.84;5090115;27;98565;-69
2023/09/03 10:41:18;;;;;;;6.00;1.52;;;;;;;24.84;39.91;102261.34;5080223;27;96861;-67
2023/09/03 10:43:45;;;;;;;3.50;1.30;;;;;;;24.96;39.76;102268.59;5088013;27;98100;-71
2023/09/03 10:46:13;;;;;;;2.47;0.93;;;;;;;25.21;39.25;102272.22;5084344;27;99017;-73
2023/09/03 10:48:39;;;;;;;3.42;1.27;;;;;;;25.42;39.27;102265.22;5088761;27;98840;-71
2023/09/03 10:51:06;;;;;;;2.97;1.05;;;;;;;25.24;38.41;102266.59;5085045;27;97019;-69
2023/09/03 10:53:37;;;;;;;3.92;1.30;;;;;;;25.25;39.17;102269.19;5089764;27;96891;-71
2023/09/03 10:56:12;;;;;;;3.40;1.85;;;;;;;25.70;38.03;102262.22;5089214;27;99423;-72
2023/09/03 10:58:55;;;;;;;2.78;1.40;;;;;;;26.15;36.96;102265.97;5089143;27;100768;-71
2023/09/03 11:01:26;;;;;;;1.83;1.20;;;;;;;25.65;37.89;102267.13;5086252;27;96852;-69
2023/09/03 11:03:54;;;;;;;4.63;0.88;;;;;;;26.25;37.09;102274.31;5083434;27;96937;-69
2023/09/03 11:06:22;;;;;;;1.83;0.93;;;;;;;26.20;36.90;102273.72;5089049;27;97640;-69
2023/09/03 11:08:49;;;;;;;2.38;1.10;;;;;;;26.23;36.35;102270.81;5086365;27;98858;-68
2023/09/03 11:11:20;;;;;;;3.08;0.95;;;;;;;26.21;35.99;102272.75;5085786;27;98168;-69
2023/09/03 11:13:51;;;;;;;2.25;1.00;;;;;;;26.33;36.02;102274.53;5081901;27;98223;-68
2023/09/03 11:16:19;;;;;;;3.58;1.30;;;;;;;26.72;35.74;102280.50;5087074;27;98023;-69
2023/09/03 11:18:50;;;;;;;2.55;1.00;;;;;;;26.66;35.04;102275.59;5079980;27;99859;-68
2023/09/03 11:21:17;;;;;;;2.50;1.35;;;;;;;27.20;35.00;102278.47;5083105;27;97717;-69
2023/09/03 11:23:59;;;;;;;2.38;1.10;;;;;;;27.06;34.75;102284.13;5088465;27;97015;-68
2023/09/03 11:26:25;;;;;;;3.58;0.80;;;;;;;27.45;34.01;102282.72;5086218;27;99498;-68